createdAt,value
2018-12-01T00:03:30.259Z,14.63
2018-12-01T00:08:34.869Z,13.97
2018-12-01T00:13:39.311Z,15.13
2018-12-01T00:18:43.942Z,14.03
2018-12-01T00:23:49.257Z,14.10
2018-12-01T00:28:52.990Z,14.43
2018-12-01T00:33:57.563Z,14.10
2018-12-01T00:39:02.111Z,14.27
2018-12-01T00:44:06.694Z,14.03
2018-12-01T00:49:11.220Z,13.93
2018-12-01T00:54:15.814Z,13.63
2018-12-01T00:59:39.377Z,13.67
2018-12-01T01:04:43.917Z,13.93
2018-12-01T01:09:48.479Z,12.97
2018-12-01T01:14:53.050Z,13.43
2018-12-01T01:19:57.656Z,13.50
2018-12-01T01:25:02.248Z,13.83
2018-12-01T01:30:25.854Z,12.27
2018-12-01T01:35:30.459Z,12.57
2018-12-01T01:40:35.016Z,13.63
2018-12-01T01:45:39.578Z,12.60
2018-12-01T01:50:44.159Z,12.40
2018-12-01T01:55:48.739Z,12.13
2018-12-01T02:00:53.267Z,12.30
2018-12-01T02:05:57.877Z,12.70
2018-12-01T02:11:02.413Z,12.10
2018-12-01T02:16:07.271Z,12.80
2018-12-01T02:21:11.846Z,12.65
2018-12-01T02:26:35.133Z,12.13
2018-12-01T02:31:39.714Z,11.97
2018-12-01T02:36:44.273Z,11.03
2018-12-01T02:42:08.121Z,12.10
2018-12-01T02:47:12.703Z,12.33
2018-12-01T02:52:17.333Z,12.13
2018-12-01T02:57:21.875Z,12.40
2018-12-01T03:02:45.416Z,11.47
2018-12-01T03:07:50.038Z,11.67
2018-12-01T03:12:55.065Z,12.53
2018-12-01T03:17:59.652Z,11.87
2018-12-01T03:23:04.202Z,12.77
2018-12-01T03:28:08.775Z,12.97
2018-12-01T03:33:13.348Z,12.20
2018-12-01T03:38:17.924Z,12.47
2018-12-01T03:43:22.469Z,12.17
2018-12-01T03:48:27.053Z,12.73
2018-12-01T03:53:31.531Z,12.53
2018-12-01T03:58:36.106Z,12.90
2018-12-01T04:03:40.623Z,12.50
2018-12-01T04:08:45.182Z,12.93
2018-12-01T04:13:49.835Z,12.83
2018-12-01T04:19:13.078Z,12.57
2018-12-01T04:24:17.664Z,12.88
2018-12-01T04:29:22.267Z,13.30
2018-12-01T04:34:26.823Z,12.70
2018-12-01T04:39:31.362Z,12.27
2018-12-01T04:44:35.967Z,12.83
2018-12-01T04:49:40.534Z,12.07
2018-12-01T04:54:45.082Z,13.43
2018-12-01T04:59:49.716Z,13.00
2018-12-01T05:04:54.253Z,12.57
2018-12-01T05:09:58.893Z,13.30
2018-12-01T05:15:04.403Z,13.40
2018-12-01T05:20:27.025Z,13.07
2018-12-01T05:25:31.561Z,13.43
2018-12-01T05:30:36.125Z,13.83
2018-12-01T05:35:40.748Z,13.57
2018-12-01T05:40:45.290Z,13.67
2018-12-01T05:45:49.892Z,13.83
2018-12-01T05:50:54.412Z,13.67
2018-12-01T05:55:58.982Z,14.33
2018-12-01T06:01:03.551Z,15.03
2018-12-01T06:06:08.172Z,14.27
2018-12-01T06:11:12.733Z,15.70
2018-12-01T06:16:17.270Z,14.97
2018-12-01T06:21:21.852Z,14.87
2018-12-01T06:26:45.487Z,15.80
2018-12-01T06:31:50.044Z,15.37
2018-12-01T06:36:54.774Z,15.27
2018-12-01T06:41:59.367Z,16.00
2018-12-01T06:47:03.983Z,15.47
2018-12-01T06:52:08.502Z,16.80
2018-12-01T06:57:13.199Z,17.50
2018-12-01T07:02:17.747Z,17.40
2018-12-01T07:07:22.327Z,16.93
2018-12-01T07:12:26.869Z,17.83
2018-12-01T07:17:31.435Z,17.83
2018-12-01T07:22:35.968Z,18.17
2018-12-01T07:27:40.548Z,18.20
2018-12-01T07:32:45.737Z,18.93
2018-12-01T07:37:50.298Z,18.33
2018-12-01T07:42:54.857Z,17.70
2018-12-01T07:47:59.397Z,18.33
2018-12-01T07:53:03.984Z,19.33
2018-12-01T07:58:09.497Z,18.20
2018-12-01T08:03:13.961Z,19.60
2018-12-01T08:08:18.530Z,18.53
2018-12-01T08:13:23.119Z,18.77
2018-12-01T08:18:27.561Z,19.70
2018-12-01T08:23:32.112Z,20.23
2018-12-01T08:28:36.909Z,19.80
2018-12-01T08:33:42.357Z,19.47
2018-12-01T08:38:46.946Z,20.03
2018-12-01T08:43:51.495Z,20.90
2018-12-01T08:48:56.035Z,20.50
2018-12-01T08:54:00.556Z,20.87
2018-12-01T08:59:05.128Z,19.83
2018-12-01T09:04:09.735Z,21.00
2018-12-01T09:09:17.374Z,20.10
2018-12-01T09:14:22.360Z,21.57
2018-12-01T09:19:26.906Z,21.17
2018-12-01T09:24:31.443Z,21.43
2018-12-01T09:29:36.010Z,20.73
2018-12-01T09:34:40.921Z,21.27
2018-12-01T09:39:45.534Z,20.50
2018-12-01T09:44:50.152Z,22.10
2018-12-01T09:50:32.642Z,22.63
2018-12-01T09:55:56.415Z,21.77
2018-12-01T10:01:20.058Z,21.30
2018-12-01T10:06:43.629Z,22.27
2018-12-01T10:11:50.453Z,22.30
2018-12-01T10:16:52.676Z,21.63
2018-12-01T10:21:57.399Z,22.17
2018-12-01T10:27:01.957Z,23.40
2018-12-01T10:32:06.579Z,22.13
2018-12-01T10:37:11.072Z,22.07
2018-12-01T10:42:15.584Z,23.30
2018-12-01T10:47:20.209Z,22.73
2018-12-01T10:52:24.669Z,22.53
2018-12-01T10:57:47.918Z,22.67
2018-12-01T11:03:11.138Z,24.87
2018-12-01T11:08:16.555Z,23.50
2018-12-01T11:13:21.132Z,24.20
2018-12-01T11:24:14.363Z,23.93
2018-12-01T11:29:19.288Z,23.07
2018-12-01T11:34:43.373Z,24.80
2018-12-01T11:39:50.138Z,25.13
2018-12-01T11:44:56.946Z,24.17
2018-12-01T11:50:18.737Z,25.92
2018-12-01T11:55:26.423Z,25.20
2018-12-01T12:00:30.935Z,25.30
2018-12-01T12:05:35.601Z,25.40
2018-12-01T12:10:40.136Z,24.87
2018-12-01T12:15:45.026Z,25.77
2018-12-01T12:20:50.116Z,26.90
2018-12-01T12:26:13.701Z,25.53
2018-12-01T12:31:18.485Z,26.57
2018-12-01T12:36:42.239Z,27.27
2018-12-01T12:41:46.909Z,27.20
2018-12-01T12:46:51.502Z,28.27
2018-12-01T12:51:56.052Z,26.47
2018-12-01T12:57:00.615Z,27.73
2018-12-01T13:02:05.282Z,27.63
2018-12-01T13:07:09.845Z,29.27
2018-12-01T13:12:14.452Z,28.67
2018-12-01T13:17:19.104Z,28.50
2018-12-01T13:22:23.691Z,27.97
2018-12-01T13:27:28.296Z,28.97
2018-12-01T13:32:32.839Z,28.98
2018-12-01T13:37:38.019Z,29.37
2018-12-01T13:42:42.849Z,27.57
2018-12-01T13:47:52.326Z,29.00
2018-12-01T13:53:18.255Z,28.33
2018-12-01T13:58:22.840Z,27.53
2018-12-01T14:03:29.547Z,28.67
2018-12-01T14:08:52.815Z,27.90
2018-12-01T14:14:17.127Z,28.60
2018-12-01T14:19:40.728Z,27.40
2018-12-01T14:24:45.330Z,28.57
2018-12-01T14:29:49.932Z,27.77
2018-12-01T14:34:54.668Z,29.03
2018-12-01T14:45:28.789Z,27.53
2018-12-01T14:50:33.339Z,28.10
2018-12-01T14:55:38.314Z,28.73
2018-12-01T15:00:42.814Z,27.57
2018-12-01T15:05:47.349Z,28.93
2018-12-01T15:10:51.928Z,26.93
2018-12-01T15:15:56.550Z,28.97
2018-12-01T15:21:01.081Z,27.27
2018-12-01T15:26:05.629Z,28.20
2018-12-01T15:31:11.314Z,28.77
2018-12-01T15:36:15.855Z,28.00
2018-12-01T15:41:20.512Z,28.20
2018-12-01T15:46:25.336Z,28.23
2018-12-01T15:51:29.941Z,28.33
2018-12-01T15:56:53.658Z,27.23
2018-12-01T16:01:58.376Z,28.73
2018-12-01T16:07:21.601Z,27.53
2018-12-01T16:12:26.140Z,28.37
2018-12-01T16:17:30.774Z,27.70
2018-12-01T16:22:54.377Z,28.20
2018-12-01T16:27:58.942Z,28.87
2018-12-01T16:33:04.894Z,28.83
2018-12-01T16:38:11.098Z,29.43
2018-12-01T16:43:16.352Z,28.00
2018-12-01T16:48:21.105Z,29.80
2018-12-01T16:53:25.639Z,28.47
2018-12-01T16:58:30.158Z,27.37
2018-12-01T17:03:53.842Z,28.20
2018-12-01T17:08:58.631Z,27.40
2018-12-01T17:14:03.196Z,28.07
2018-12-01T17:19:08.120Z,28.27
2018-12-01T17:24:12.799Z,28.00
2018-12-01T17:29:17.368Z,29.40
2018-12-01T17:34:41.673Z,27.23
2018-12-01T17:39:46.220Z,28.80
2018-12-01T17:44:50.798Z,27.50
2018-12-01T17:49:55.384Z,27.17
2018-12-01T17:54:59.959Z,26.57
2018-12-01T18:00:24.002Z,26.23
2018-12-01T18:05:51.117Z,25.63
2018-12-01T18:10:56.391Z,25.93
2018-12-01T18:16:01.185Z,24.50
2018-12-01T18:21:24.543Z,25.67
2018-12-01T18:26:29.077Z,25.60
2018-12-01T18:31:33.691Z,25.77
2018-12-01T18:36:57.281Z,24.93
2018-12-01T18:42:02.144Z,25.63
2018-12-01T18:47:06.877Z,25.43
2018-12-01T18:52:11.424Z,25.03
2018-12-01T18:57:16.004Z,24.53
2018-12-01T19:02:20.619Z,24.87
2018-12-01T19:07:25.103Z,25.97
2018-12-01T19:12:29.685Z,26.35
2018-12-01T19:17:34.274Z,25.57
2018-12-01T19:22:38.824Z,26.33
2018-12-01T19:27:43.401Z,25.17
2018-12-01T19:33:10.670Z,25.83
2018-12-01T19:38:38.845Z,25.37
2018-12-01T19:43:43.430Z,23.63
2018-12-01T19:48:47.970Z,24.57
2018-12-01T19:53:52.574Z,25.53
2018-12-01T19:58:57.126Z,24.47
2018-12-01T20:04:01.700Z,24.57
2018-12-01T20:09:07.639Z,23.97
2018-12-01T20:14:14.851Z,23.47
2018-12-01T20:19:19.471Z,22.67
2018-12-01T20:24:24.056Z,23.30
2018-12-01T20:29:29.288Z,21.97
2018-12-01T20:34:55.689Z,23.23
2018-12-01T20:40:00.276Z,21.30
2018-12-01T20:45:04.890Z,19.70
2018-12-01T20:50:17.513Z,20.70
2018-12-01T20:55:26.760Z,20.93
2018-12-01T21:00:31.342Z,18.83
2018-12-01T21:11:06.486Z,19.03
2018-12-01T21:16:11.085Z,17.93
2018-12-01T21:21:15.630Z,18.53
2018-12-01T21:26:20.138Z,18.20
2018-12-01T21:31:24.681Z,17.57
2018-12-01T21:36:29.838Z,17.93
2018-12-01T21:41:34.373Z,17.37
2018-12-01T21:46:38.896Z,17.10
2018-12-01T21:51:43.520Z,16.87
2018-12-01T21:57:06.729Z,17.20
2018-12-01T22:02:11.322Z,18.13
2018-12-01T22:07:15.868Z,17.37
2018-12-01T22:12:20.466Z,17.40
2018-12-01T22:17:25.206Z,17.50
2018-12-01T22:22:29.725Z,18.77
2018-12-01T22:27:34.317Z,17.62
2018-12-01T22:32:57.870Z,17.50
2018-12-01T22:38:02.491Z,17.27
2018-12-01T22:43:08.338Z,17.23
2018-12-01T22:48:31.908Z,16.63
2018-12-01T22:53:36.693Z,17.03
2018-12-01T22:58:41.256Z,16.43
2018-12-01T23:03:45.822Z,18.70
2018-12-01T23:09:09.462Z,15.27
2018-12-01T23:14:14.064Z,14.17
2018-12-01T23:19:19.179Z,14.47
2018-12-01T23:24:52.716Z,13.83
2018-12-01T23:29:57.589Z,13.33
2018-12-01T23:35:02.100Z,13.50
2018-12-01T23:40:08.958Z,14.47
2018-12-01T23:45:32.556Z,12.93
2018-12-01T23:50:37.759Z,13.20
2018-12-01T23:55:42.501Z,11.97
